sensor_id;sensor_type;location;lat;lon;timestamp;temperature;humidity
35258;DHT22;21385;50.878;8.050;2023-12-20T00:01:47;6.80;99.90
35258;DHT22;21385;50.878;8.050;2023-12-20T00:04:12;6.80;99.90
35258;DHT22;21385;50.878;8.050;2023-12-20T00:06:38;6.70;99.90
35258;DHT22;21385;50.878;8.050;2023-12-20T00:09:03;6.70;99.90
35258;DHT22;21385;50.878;8.050;2023-12-20T00:11:29;6.80;99.90
35258;DHT22;21385;50.878;8.050;2023-12-20T00:13:54;6.80;99.90
35258;DHT22;21385;50.878;8.050;2023-12-20T00:16:20;6.80;99.90
35258;DHT22;21385;50.878;8.050;2023-12-20T00:18:46;6.80;99.90
35258;DHT22;21385;50.878;8.050;2023-12-20T00:21:11;6.70;99.90
35258;DHT22;21385;50.878;8.050;2023-12-20T00:23:37;6.80;99.90
35258;DHT22;21385;50.878;8.050;2023-12-20T00:26:02;6.80;99.90
35258;DHT22;21385;50.878;8.050;2023-12-20T00:28:28;6.80;99.90
35258;DHT22;21385;50.878;8.050;2023-12-20T00:30:54;6.80;99.90
35258;DHT22;21385;50.878;8.050;2023-12-20T00:33:19;6.90;99.90
35258;DHT22;21385;50.878;8.050;2023-12-20T00:35:45;6.80;99.90
35258;DHT22;21385;50.878;8.050;2023-12-20T00:38:10;6.90;99.90
35258;DHT22;21385;50.878;8.050;2023-12-20T00:40:37;6.80;99.90
35258;DHT22;21385;50.878;8.050;2023-12-20T00:43:03;6.80;99.90
35258;DHT22;21385;50.878;8.050;2023-12-20T00:45:28;6.80;99.90
35258;DHT22;21385;50.878;8.050;2023-12-20T00:47:54;6.80;99.90
35258;DHT22;21385;50.878;8.050;2023-12-20T00:50:19;6.80;99.90
35258;DHT22;21385;50.878;8.050;2023-12-20T00:52:47;6.90;99.90
35258;DHT22;21385;50.878;8.050;2023-12-20T00:55:13;6.90;99.90
35258;DHT22;21385;50.878;8.050;2023-12-20T00:57:38;6.90;99.90
35258;DHT22;21385;50.878;8.050;2023-12-20T01:00:04;6.90;99.90
35258;DHT22;21385;50.878;8.050;2023-12-20T01:02:30;6.90;99.90
35258;DHT22;21385;50.878;8.050;2023-12-20T01:04:56;6.80;99.90
35258;DHT22;21385;50.878;8.050;2023-12-20T01:07:21;6.90;99.90
35258;DHT22;21385;50.878;8.050;2023-12-20T01:09:47;7.00;99.90
35258;DHT22;21385;50.878;8.050;2023-12-20T01:12:12;7.00;99.90
35258;DHT22;21385;50.878;8.050;2023-12-20T01:14:38;7.00;99.90
35258;DHT22;21385;50.878;8.050;2023-12-20T01:17:04;6.90;99.90
35258;DHT22;21385;50.878;8.050;2023-12-20T01:19:30;6.90;99.90
35258;DHT22;21385;50.878;8.050;2023-12-20T01:21:56;7.00;99.90
35258;DHT22;21385;50.878;8.050;2023-12-20T01:24:21;7.00;99.90
35258;DHT22;21385;50.878;8.050;2023-12-20T01:26:47;7.00;99.90
35258;DHT22;21385;50.878;8.050;2023-12-20T01:29:12;7.10;99.90
35258;DHT22;21385;50.878;8.050;2023-12-20T01:31:39;7.00;99.90
35258;DHT22;21385;50.878;8.050;2023-12-20T01:34:06;7.00;99.90
35258;DHT22;21385;50.878;8.050;2023-12-20T01:36:31;7.10;99.90
35258;DHT22;21385;50.878;8.050;2023-12-20T01:38:58;7.00;99.90
35258;DHT22;21385;50.878;8.050;2023-12-20T01:41:23;7.10;99.90
35258;DHT22;21385;50.878;8.050;2023-12-20T01:43:49;7.10;99.90
35258;DHT22;21385;50.878;8.050;2023-12-20T01:46:15;7.10;99.90
35258;DHT22;21385;50.878;8.050;2023-12-20T01:48:41;7.10;99.90
35258;DHT22;21385;50.878;8.050;2023-12-20T01:51:07;7.10;99.90
35258;DHT22;21385;50.878;8.050;2023-12-20T01:53:33;7.10;99.90
35258;DHT22;21385;50.878;8.050;2023-12-20T01:55:59;7.10;99.90
35258;DHT22;21385;50.878;8.050;2023-12-20T01:58:25;7.10;99.90
35258;DHT22;21385;50.878;8.050;2023-12-20T02:00:51;7.10;99.90
35258;DHT22;21385;50.878;8.050;2023-12-20T02:03:18;7.10;99.90
35258;DHT22;21385;50.878;8.050;2023-12-20T02:05:44;6.90;99.90
35258;DHT22;21385;50.878;8.050;2023-12-20T02:08:11;6.90;99.90
35258;DHT22;21385;50.878;8.050;2023-12-20T02:10:36;6.90;99.90
35258;DHT22;21385;50.878;8.050;2023-12-20T02:13:03;6.90;99.90
35258;DHT22;21385;50.878;8.050;2023-12-20T02:15:29;6.90;99.90
35258;DHT22;21385;50.878;8.050;2023-12-20T02:17:55;7.00;99.90
35258;DHT22;21385;50.878;8.050;2023-12-20T02:20:21;7.00;99.90
35258;DHT22;21385;50.878;8.050;2023-12-20T02:22:46;6.90;99.90
35258;DHT22;21385;50.878;8.050;2023-12-20T02:25:12;6.90;99.90
35258;DHT22;21385;50.878;8.050;2023-12-20T02:27:38;6.90;99.90
35258;DHT22;21385;50.878;8.050;2023-12-20T02:30:05;6.90;99.90
35258;DHT22;21385;50.878;8.050;2023-12-20T02:32:31;6.90;99.90
35258;DHT22;21385;50.878;8.050;2023-12-20T02:34:57;6.80;99.90
35258;DHT22;21385;50.878;8.050;2023-12-20T02:37:23;6.80;99.90
35258;DHT22;21385;50.878;8.050;2023-12-20T02:39:49;6.80;99.90
35258;DHT22;21385;50.878;8.050;2023-12-20T02:42:15;6.70;99.90
35258;DHT22;21385;50.878;8.050;2023-12-20T02:44:40;6.70;99.90
35258;DHT22;21385;50.878;8.050;2023-12-20T02:47:06;6.70;99.90
35258;DHT22;21385;50.878;8.050;2023-12-20T02:49:31;6.70;99.90
35258;DHT22;21385;50.878;8.050;2023-12-20T02:51:57;6.70;99.90
35258;DHT22;21385;50.878;8.050;2023-12-20T02:54:22;6.70;99.90
35258;DHT22;21385;50.878;8.050;2023-12-20T02:56:48;6.60;99.90
35258;DHT22;21385;50.878;8.050;2023-12-20T02:59:14;6.60;99.90
35258;DHT22;21385;50.878;8.050;2023-12-20T03:01:45;6.60;99.90
35258;DHT22;21385;50.878;8.050;2023-12-20T03:04:11;6.70;99.90
35258;DHT22;21385;50.878;8.050;2023-12-20T03:06:37;6.70;99.90
35258;DHT22;21385;50.878;8.050;2023-12-20T03:09:03;6.70;99.90
35258;DHT22;21385;50.878;8.050;2023-12-20T03:11:28;6.70;99.90
35258;DHT22;21385;50.878;8.050;2023-12-20T03:13:55;6.60;99.90
35258;DHT22;21385;50.878;8.050;2023-12-20T03:16:21;6.50;99.90
35258;DHT22;21385;50.878;8.050;2023-12-20T03:18:46;6.50;99.90
35258;DHT22;21385;50.878;8.050;2023-12-20T03:21:12;6.50;99.90
35258;DHT22;21385;50.878;8.050;2023-12-20T03:23:37;6.50;99.90
35258;DHT22;21385;50.878;8.050;2023-12-20T03:26:03;6.40;99.90
35258;DHT22;21385;50.878;8.050;2023-12-20T03:28:29;6.50;99.90
35258;DHT22;21385;50.878;8.050;2023-12-20T03:30:55;6.50;99.90
35258;DHT22;21385;50.878;8.050;2023-12-20T03:33:21;6.40;99.90
35258;DHT22;21385;50.878;8.050;2023-12-20T03:35:46;6.40;99.90
35258;DHT22;21385;50.878;8.050;2023-12-20T03:38:12;6.40;99.90
35258;DHT22;21385;50.878;8.050;2023-12-20T03:40:37;6.30;99.90
35258;DHT22;21385;50.878;8.050;2023-12-20T03:43:03;6.30;99.90
35258;DHT22;21385;50.878;8.050;2023-12-20T03:45:29;6.30;99.90
35258;DHT22;21385;50.878;8.050;2023-12-20T03:47:54;6.30;99.90
35258;DHT22;21385;50.878;8.050;2023-12-20T03:50:24;6.30;99.90
35258;DHT22;21385;50.878;8.050;2023-12-20T03:52:50;6.30;99.90
35258;DHT22;21385;50.878;8.050;2023-12-20T03:55:16;6.20;99.90
35258;DHT22;21385;50.878;8.050;2023-12-20T03:57:41;6.20;99.90
35258;DHT22;21385;50.878;8.050;2023-12-20T04:00:07;6.20;99.90
35258;DHT22;21385;50.878;8.050;2023-12-20T04:02:37;6.10;99.90
35258;DHT22;21385;50.878;8.050;2023-12-20T04:05:03;6.10;99.90
35258;DHT22;21385;50.878;8.050;2023-12-20T04:07:28;6.00;99.90
35258;DHT22;21385;50.878;8.050;2023-12-20T04:09:55;6.00;99.90
35258;DHT22;21385;50.878;8.050;2023-12-20T04:12:20;6.00;99.90
35258;DHT22;21385;50.878;8.050;2023-12-20T04:14:46;5.90;99.90
35258;DHT22;21385;50.878;8.050;2023-12-20T04:17:11;5.90;99.90
35258;DHT22;21385;50.878;8.050;2023-12-20T04:19:37;5.90;99.90
35258;DHT22;21385;50.878;8.050;2023-12-20T04:22:03;5.90;99.90
35258;DHT22;21385;50.878;8.050;2023-12-20T04:24:28;5.80;99.90
35258;DHT22;21385;50.878;8.050;2023-12-20T04:26:54;5.90;99.90
35258;DHT22;21385;50.878;8.050;2023-12-20T04:29:20;5.90;99.90
35258;DHT22;21385;50.878;8.050;2023-12-20T04:31:45;6.00;99.90
35258;DHT22;21385;50.878;8.050;2023-12-20T04:34:11;5.90;99.90
35258;DHT22;21385;50.878;8.050;2023-12-20T04:36:36;5.90;99.90
35258;DHT22;21385;50.878;8.050;2023-12-20T04:39:02;5.90;99.90
35258;DHT22;21385;50.878;8.050;2023-12-20T04:41:28;6.00;99.90
35258;DHT22;21385;50.878;8.050;2023-12-20T04:43:54;5.90;99.90
35258;DHT22;21385;50.878;8.050;2023-12-20T04:46:19;5.80;99.90
35258;DHT22;21385;50.878;8.050;2023-12-20T04:48:45;5.80;99.90
35258;DHT22;21385;50.878;8.050;2023-12-20T04:51:10;5.60;99.90
35258;DHT22;21385;50.878;8.050;2023-12-20T04:53:36;5.60;99.90
35258;DHT22;21385;50.878;8.050;2023-12-20T04:56:01;5.50;99.90
35258;DHT22;21385;50.878;8.050;2023-12-20T04:58:27;5.50;99.90
35258;DHT22;21385;50.878;8.050;2023-12-20T05:00:53;5.40;99.90
35258;DHT22;21385;50.878;8.050;2023-12-20T05:03:18;5.50;99.90
35258;DHT22;21385;50.878;8.050;2023-12-20T05:05:44;5.50;99.90
35258;DHT22;21385;50.878;8.050;2023-12-20T05:08:09;5.60;99.90
35258;DHT22;21385;50.878;8.050;2023-12-20T05:10:35;5.70;99.90
35258;DHT22;21385;50.878;8.050;2023-12-20T05:13:02;5.70;99.90
35258;DHT22;21385;50.878;8.050;2023-12-20T05:15:27;5.80;99.90
35258;DHT22;21385;50.878;8.050;2023-12-20T05:17:53;5.70;99.90
35258;DHT22;21385;50.878;8.050;2023-12-20T05:20:19;5.80;99.90
35258;DHT22;21385;50.878;8.050;2023-12-20T05:22:44;5.70;99.90
35258;DHT22;21385;50.878;8.050;2023-12-20T05:25:10;5.80;99.90
35258;DHT22;21385;50.878;8.050;2023-12-20T05:27:36;5.80;99.90
35258;DHT22;21385;50.878;8.050;2023-12-20T05:30:01;5.80;99.90
35258;DHT22;21385;50.878;8.050;2023-12-20T05:32:27;5.90;99.90
35258;DHT22;21385;50.878;8.050;2023-12-20T05:34:53;5.90;99.90
35258;DHT22;21385;50.878;8.050;2023-12-20T05:37:18;5.90;99.90
35258;DHT22;21385;50.878;8.050;2023-12-20T05:39:44;5.90;99.90
35258;DHT22;21385;50.878;8.050;2023-12-20T05:42:09;5.90;99.90
35258;DHT22;21385;50.878;8.050;2023-12-20T05:44:35;6.00;99.90
35258;DHT22;21385;50.878;8.050;2023-12-20T05:47:01;6.00;99.90
35258;DHT22;21385;50.878;8.050;2023-12-20T05:49:27;5.90;99.90
35258;DHT22;21385;50.878;8.050;2023-12-20T05:51:52;5.90;99.90
35258;DHT22;21385;50.878;8.050;2023-12-20T05:54:19;5.90;99.90
35258;DHT22;21385;50.878;8.050;2023-12-20T05:56:44;5.90;99.90
35258;DHT22;21385;50.878;8.050;2023-12-20T05:59:10;5.80;99.90
35258;DHT22;21385;50.878;8.050;2023-12-20T06:01:36;5.90;99.90
35258;DHT22;21385;50.878;8.050;2023-12-20T06:04:01;5.80;99.90
35258;DHT22;21385;50.878;8.050;2023-12-20T06:06:28;5.90;99.90
35258;DHT22;21385;50.878;8.050;2023-12-20T06:08:54;6.00;99.90
35258;DHT22;21385;50.878;8.050;2023-12-20T06:11:19;5.90;99.90
35258;DHT22;21385;50.878;8.050;2023-12-20T06:13:45;5.90;99.90
35258;DHT22;21385;50.878;8.050;2023-12-20T06:16:10;6.00;99.90
35258;DHT22;21385;50.878;8.050;2023-12-20T06:18:36;6.00;99.90
35258;DHT22;21385;50.878;8.050;2023-12-20T06:21:02;6.00;99.90
35258;DHT22;21385;50.878;8.050;2023-12-20T06:23:28;6.00;99.90
35258;DHT22;21385;50.878;8.050;2023-12-20T06:25:54;6.10;99.90
35258;DHT22;21385;50.878;8.050;2023-12-20T06:28:19;6.10;99.90
35258;DHT22;21385;50.878;8.050;2023-12-20T06:30:45;6.00;99.90
35258;DHT22;21385;50.878;8.050;2023-12-20T06:33:12;6.00;99.90
35258;DHT22;21385;50.878;8.050;2023-12-20T06:35:38;6.00;99.90
35258;DHT22;21385;50.878;8.050;2023-12-20T06:38:04;6.10;99.90
35258;DHT22;21385;50.878;8.050;2023-12-20T06:40:30;6.10;99.90
35258;DHT22;21385;50.878;8.050;2023-12-20T06:42:55;6.00;99.90
35258;DHT22;21385;50.878;8.050;2023-12-20T06:45:21;6.00;99.90
35258;DHT22;21385;50.878;8.050;2023-12-20T06:47:46;6.00;99.90
35258;DHT22;21385;50.878;8.050;2023-12-20T06:50:12;6.00;99.90
35258;DHT22;21385;50.878;8.050;2023-12-20T06:52:37;6.00;99.90
35258;DHT22;21385;50.878;8.050;2023-12-20T06:55:03;6.00;99.90
35258;DHT22;21385;50.878;8.050;2023-12-20T06:57:30;5.90;99.90
35258;DHT22;21385;50.878;8.050;2023-12-20T06:59:55;6.00;99.90
35258;DHT22;21385;50.878;8.050;2023-12-20T07:02:21;6.00;99.90
35258;DHT22;21385;50.878;8.050;2023-12-20T07:04:47;6.00;99.90
35258;DHT22;21385;50.878;8.050;2023-12-20T07:07:13;6.00;99.90
35258;DHT22;21385;50.878;8.050;2023-12-20T07:09:39;5.90;99.90
35258;DHT22;21385;50.878;8.050;2023-12-20T07:12:06;5.90;99.90
35258;DHT22;21385;50.878;8.050;2023-12-20T07:14:32;6.00;99.90
35258;DHT22;21385;50.878;8.050;2023-12-20T07:16:57;5.90;99.90
35258;DHT22;21385;50.878;8.050;2023-12-20T07:19:23;5.90;99.90
35258;DHT22;21385;50.878;8.050;2023-12-20T07:21:48;5.90;99.90
35258;DHT22;21385;50.878;8.050;2023-12-20T07:24:14;5.90;99.90
35258;DHT22;21385;50.878;8.050;2023-12-20T07:26:39;5.90;99.90
35258;DHT22;21385;50.878;8.050;2023-12-20T07:29:05;5.90;99.90
35258;DHT22;21385;50.878;8.050;2023-12-20T07:31:32;5.90;99.90
35258;DHT22;21385;50.878;8.050;2023-12-20T07:33:57;5.90;99.90
35258;DHT22;21385;50.878;8.050;2023-12-20T07:36:23;5.90;99.90
35258;DHT22;21385;50.878;8.050;2023-12-20T07:38:48;5.80;99.90
35258;DHT22;21385;50.878;8.050;2023-12-20T07:41:14;5.80;99.90
35258;DHT22;21385;50.878;8.050;2023-12-20T07:43:41;5.80;99.90
35258;DHT22;21385;50.878;8.050;2023-12-20T07:46:08;5.80;99.90
35258;DHT22;21385;50.878;8.050;2023-12-20T07:48:35;5.80;99.90
35258;DHT22;21385;50.878;8.050;2023-12-20T07:51:01;5.80;99.90
35258;DHT22;21385;50.878;8.050;2023-12-20T07:53:26;5.80;99.90
35258;DHT22;21385;50.878;8.050;2023-12-20T07:55:52;5.80;99.90
35258;DHT22;21385;50.878;8.050;2023-12-20T07:58:18;5.70;99.90
35258;DHT22;21385;50.878;8.050;2023-12-20T08:00:44;5.80;99.90
35258;DHT22;21385;50.878;8.050;2023-12-20T08:03:09;5.80;99.90
35258;DHT22;21385;50.878;8.050;2023-12-20T08:05:35;5.80;99.90
35258;DHT22;21385;50.878;8.050;2023-12-20T08:08:01;5.70;99.90
35258;DHT22;21385;50.878;8.050;2023-12-20T08:10:26;5.70;99.90
35258;DHT22;21385;50.878;8.050;2023-12-20T08:12:54;5.70;99.90
35258;DHT22;21385;50.878;8.050;2023-12-20T08:15:20;5.70;99.90
35258;DHT22;21385;50.878;8.050;2023-12-20T08:17:46;5.70;99.90
35258;DHT22;21385;50.878;8.050;2023-12-20T08:20:11;5.80;99.90
35258;DHT22;21385;50.878;8.050;2023-12-20T08:22:37;5.80;99.90
35258;DHT22;21385;50.878;8.050;2023-12-20T08:25:02;5.90;99.90
35258;DHT22;21385;50.878;8.050;2023-12-20T08:27:28;5.80;99.90
35258;DHT22;21385;50.878;8.050;2023-12-20T08:29:54;5.80;99.90
35258;DHT22;21385;50.878;8.050;2023-12-20T08:32:19;5.70;99.90
35258;DHT22;21385;50.878;8.050;2023-12-20T08:34:45;5.70;99.90
35258;DHT22;21385;50.878;8.050;2023-12-20T08:37:10;5.80;99.90
35258;DHT22;21385;50.878;8.050;2023-12-20T08:39:36;5.80;99.90
35258;DHT22;21385;50.878;8.050;2023-12-20T08:42:01;5.80;99.90
35258;DHT22;21385;50.878;8.050;2023-12-20T08:44:27;5.90;99.90
35258;DHT22;21385;50.878;8.050;2023-12-20T08:46:53;5.80;99.90
35258;DHT22;21385;50.878;8.050;2023-12-20T08:49:18;5.90;99.90
35258;DHT22;21385;50.878;8.050;2023-12-20T08:51:44;5.90;99.90
35258;DHT22;21385;50.878;8.050;2023-12-20T08:54:09;5.90;99.90
35258;DHT22;21385;50.878;8.050;2023-12-20T08:56:35;5.90;99.90
35258;DHT22;21385;50.878;8.050;2023-12-20T08:59:01;5.90;99.90
35258;DHT22;21385;50.878;8.050;2023-12-20T09:01:26;5.90;99.90
35258;DHT22;21385;50.878;8.050;2023-12-20T09:03:52;5.80;99.90
35258;DHT22;21385;50.878;8.050;2023-12-20T09:06:17;5.80;99.90
35258;DHT22;21385;50.878;8.050;2023-12-20T09:08:43;5.90;99.90
35258;DHT22;21385;50.878;8.050;2023-12-20T09:11:08;5.90;99.90
35258;DHT22;21385;50.878;8.050;2023-12-20T09:13:34;5.80;99.90
35258;DHT22;21385;50.878;8.050;2023-12-20T09:16:00;5.90;99.90
35258;DHT22;21385;50.878;8.050;2023-12-20T09:18:25;5.90;99.90
35258;DHT22;21385;50.878;8.050;2023-12-20T09:20:51;5.90;99.90
35258;DHT22;21385;50.878;8.050;2023-12-20T09:23:17;5.80;99.90
35258;DHT22;21385;50.878;8.050;2023-12-20T09:25:43;5.70;99.90
35258;DHT22;21385;50.878;8.050;2023-12-20T09:28:09;5.80;99.90
35258;DHT22;21385;50.878;8.050;2023-12-20T09:30:35;5.80;99.90
35258;DHT22;21385;50.878;8.050;2023-12-20T09:33:04;5.80;99.90
35258;DHT22;21385;50.878;8.050;2023-12-20T09:35:32;5.80;99.90
35258;DHT22;21385;50.878;8.050;2023-12-20T09:37:58;5.70;99.90
35258;DHT22;21385;50.878;8.050;2023-12-20T09:40:26;5.80;99.90
35258;DHT22;21385;50.878;8.050;2023-12-20T09:43:14;5.80;99.90
35258;DHT22;21385;50.878;8.050;2023-12-20T09:45:40;5.80;99.90
35258;DHT22;21385;50.878;8.050;2023-12-20T09:48:07;5.90;99.90
35258;DHT22;21385;50.878;8.050;2023-12-20T09:50:36;5.90;99.90
35258;DHT22;21385;50.878;8.050;2023-12-20T09:53:02;5.90;99.90
35258;DHT22;21385;50.878;8.050;2023-12-20T09:55:30;5.80;99.90
35258;DHT22;21385;50.878;8.050;2023-12-20T09:57:57;5.80;99.90
35258;DHT22;21385;50.878;8.050;2023-12-20T10:00:23;5.80;99.90
35258;DHT22;21385;50.878;8.050;2023-12-20T10:02:59;5.70;99.90
35258;DHT22;21385;50.878;8.050;2023-12-20T10:05:30;5.70;99.90
35258;DHT22;21385;50.878;8.050;2023-12-20T10:07:57;5.70;99.90
35258;DHT22;21385;50.878;8.050;2023-12-20T10:10:23;5.70;99.90
35258;DHT22;21385;50.878;8.050;2023-12-20T10:15:27;5.70;99.90
35258;DHT22;21385;50.878;8.050;2023-12-20T10:17:53;5.80;99.90
35258;DHT22;21385;50.878;8.050;2023-12-20T10:20:20;5.70;99.90
35258;DHT22;21385;50.878;8.050;2023-12-20T10:22:46;5.80;99.90
35258;DHT22;21385;50.878;8.050;2023-12-20T10:25:12;5.90;99.90
35258;DHT22;21385;50.878;8.050;2023-12-20T10:27:37;5.90;99.90
35258;DHT22;21385;50.878;8.050;2023-12-20T10:30:03;5.90;99.90
35258;DHT22;21385;50.878;8.050;2023-12-20T10:32:30;5.80;99.90
35258;DHT22;21385;50.878;8.050;2023-12-20T10:34:57;5.70;99.90
35258;DHT22;21385;50.878;8.050;2023-12-20T10:37:22;5.70;99.90
35258;DHT22;21385;50.878;8.050;2023-12-20T10:39:52;5.80;99.90
35258;DHT22;21385;50.878;8.050;2023-12-20T10:42:22;5.90;99.90
35258;DHT22;21385;50.878;8.050;2023-12-20T10:44:48;5.90;99.90
35258;DHT22;21385;50.878;8.050;2023-12-20T10:47:14;5.90;99.90
35258;DHT22;21385;50.878;8.050;2023-12-20T10:49:40;5.70;99.90
35258;DHT22;21385;50.878;8.050;2023-12-20T10:52:09;5.70;99.90
35258;DHT22;21385;50.878;8.050;2023-12-20T10:54:34;5.80;99.90
35258;DHT22;21385;50.878;8.050;2023-12-20T10:57:03;5.80;99.90
35258;DHT22;21385;50.878;8.050;2023-12-20T10:59:33;5.70;99.90
35258;DHT22;21385;50.878;8.050;2023-12-20T11:01:59;5.80;99.90
35258;DHT22;21385;50.878;8.050;2023-12-20T11:04:53;5.80;99.90
35258;DHT22;21385;50.878;8.050;2023-12-20T11:07:33;5.80;99.90
35258;DHT22;21385;50.878;8.050;2023-12-20T11:10:10;5.80;99.90
35258;DHT22;21385;50.878;8.050;2023-12-20T11:12:51;5.80;99.90
35258;DHT22;21385;50.878;8.050;2023-12-20T11:15:18;5.80;99.90
35258;DHT22;21385;50.878;8.050;2023-12-20T11:17:45;5.70;99.90
35258;DHT22;21385;50.878;8.050;2023-12-20T11:20:14;5.70;99.90
35258;DHT22;21385;50.878;8.050;2023-12-20T11:22:40;5.70;99.90
35258;DHT22;21385;50.878;8.050;2023-12-20T11:25:16;5.80;99.90
35258;DHT22;21385;50.878;8.050;2023-12-20T11:27:43;5.70;99.90
35258;DHT22;21385;50.878;8.050;2023-12-20T11:30:09;5.80;99.90
35258;DHT22;21385;50.878;8.050;2023-12-20T11:32:36;5.90;99.90
35258;DHT22;21385;50.878;8.050;2023-12-20T11:35:17;5.90;99.90
35258;DHT22;21385;50.878;8.050;2023-12-20T11:37:44;5.80;99.90
35258;DHT22;21385;50.878;8.050;2023-12-20T11:40:14;5.80;99.90
35258;DHT22;21385;50.878;8.050;2023-12-20T11:42:43;5.80;99.90
35258;DHT22;21385;50.878;8.050;2023-12-20T11:45:09;5.80;99.90
35258;DHT22;21385;50.878;8.050;2023-12-20T11:47:36;5.80;99.90
35258;DHT22;21385;50.878;8.050;2023-12-20T11:50:01;5.90;99.90
35258;DHT22;21385;50.878;8.050;2023-12-20T11:52:29;5.80;99.90
35258;DHT22;21385;50.878;8.050;2023-12-20T11:54:55;5.90;99.90
35258;DHT22;21385;50.878;8.050;2023-12-20T11:57:20;5.90;99.90
35258;DHT22;21385;50.878;8.050;2023-12-20T11:59:46;6.00;99.90
35258;DHT22;21385;50.878;8.050;2023-12-20T12:02:12;5.90;99.90
35258;DHT22;21385;50.878;8.050;2023-12-20T12:04:41;5.90;99.90
35258;DHT22;21385;50.878;8.050;2023-12-20T12:07:06;5.90;99.90
35258;DHT22;21385;50.878;8.050;2023-12-20T12:09:32;5.90;99.90
35258;DHT22;21385;50.878;8.050;2023-12-20T12:11:58;5.90;99.90
35258;DHT22;21385;50.878;8.050;2023-12-20T12:14:24;5.80;99.90
35258;DHT22;21385;50.878;8.050;2023-12-20T12:16:50;5.80;99.90
35258;DHT22;21385;50.878;8.050;2023-12-20T12:19:24;5.90;99.90
35258;DHT22;21385;50.878;8.050;2023-12-20T12:21:51;5.90;99.90
35258;DHT22;21385;50.878;8.050;2023-12-20T12:24:20;5.90;99.90
35258;DHT22;21385;50.878;8.050;2023-12-20T12:26:51;5.90;99.90
35258;DHT22;21385;50.878;8.050;2023-12-20T12:29:17;5.90;99.90
35258;DHT22;21385;50.878;8.050;2023-12-20T12:31:42;5.90;99.90
35258;DHT22;21385;50.878;8.050;2023-12-20T12:34:08;5.90;99.90
35258;DHT22;21385;50.878;8.050;2023-12-20T12:36:34;5.90;99.90
35258;DHT22;21385;50.878;8.050;2023-12-20T12:39:02;6.00;99.90
35258;DHT22;21385;50.878;8.050;2023-12-20T12:41:30;5.90;99.90
35258;DHT22;21385;50.878;8.050;2023-12-20T12:43:55;5.90;99.90
35258;DHT22;21385;50.878;8.050;2023-12-20T12:46:21;5.90;99.90
35258;DHT22;21385;50.878;8.050;2023-12-20T12:48:47;5.90;99.90
35258;DHT22;21385;50.878;8.050;2023-12-20T12:51:12;6.00;99.90
35258;DHT22;21385;50.878;8.050;2023-12-20T12:53:39;6.00;99.90
35258;DHT22;21385;50.878;8.050;2023-12-20T12:56:05;5.90;99.90
35258;DHT22;21385;50.878;8.050;2023-12-20T12:58:31;5.90;99.90
35258;DHT22;21385;50.878;8.050;2023-12-20T13:00:57;6.00;99.90
35258;DHT22;21385;50.878;8.050;2023-12-20T13:03:23;6.00;99.90
35258;DHT22;21385;50.878;8.050;2023-12-20T13:05:49;6.00;99.90
35258;DHT22;21385;50.878;8.050;2023-12-20T13:08:15;6.00;99.90
35258;DHT22;21385;50.878;8.050;2023-12-20T13:10:41;6.00;99.90
35258;DHT22;21385;50.878;8.050;2023-12-20T13:13:06;6.00;99.90
35258;DHT22;21385;50.878;8.050;2023-12-20T13:15:32;6.00;99.90
35258;DHT22;21385;50.878;8.050;2023-12-20T13:17:58;6.00;99.90
35258;DHT22;21385;50.878;8.050;2023-12-20T13:20:25;6.00;99.90
35258;DHT22;21385;50.878;8.050;2023-12-20T13:22:50;5.90;99.90
35258;DHT22;21385;50.878;8.050;2023-12-20T13:25:16;5.90;99.90
35258;DHT22;21385;50.878;8.050;2023-12-20T13:27:42;6.00;99.90
35258;DHT22;21385;50.878;8.050;2023-12-20T13:30:07;6.00;99.90
35258;DHT22;21385;50.878;8.050;2023-12-20T13:32:33;6.00;99.90
35258;DHT22;21385;50.878;8.050;2023-12-20T13:34:59;6.00;99.90
35258;DHT22;21385;50.878;8.050;2023-12-20T13:37:24;5.90;99.90
35258;DHT22;21385;50.878;8.050;2023-12-20T13:39:50;5.90;99.90
35258;DHT22;21385;50.878;8.050;2023-12-20T13:42:15;5.80;99.90
35258;DHT22;21385;50.878;8.050;2023-12-20T13:44:41;5.80;99.90
35258;DHT22;21385;50.878;8.050;2023-12-20T13:47:07;5.80;99.90
35258;DHT22;21385;50.878;8.050;2023-12-20T13:49:33;5.90;99.90
35258;DHT22;21385;50.878;8.050;2023-12-20T13:51:59;5.90;99.90
35258;DHT22;21385;50.878;8.050;2023-12-20T13:54:24;5.90;99.90
35258;DHT22;21385;50.878;8.050;2023-12-20T13:56:50;5.90;99.90
35258;DHT22;21385;50.878;8.050;2023-12-20T13:59:15;5.90;99.90
35258;DHT22;21385;50.878;8.050;2023-12-20T14:01:41;5.90;99.90
35258;DHT22;21385;50.878;8.050;2023-12-20T14:04:07;5.90;99.90
35258;DHT22;21385;50.878;8.050;2023-12-20T14:06:33;5.90;99.90
35258;DHT22;21385;50.878;8.050;2023-12-20T14:08:58;5.90;99.90
35258;DHT22;21385;50.878;8.050;2023-12-20T14:11:28;6.00;99.90
35258;DHT22;21385;50.878;8.050;2023-12-20T14:13:54;6.00;99.90
35258;DHT22;21385;50.878;8.050;2023-12-20T14:16:24;6.00;99.90
35258;DHT22;21385;50.878;8.050;2023-12-20T14:18:49;6.00;99.90
35258;DHT22;21385;50.878;8.050;2023-12-20T14:21:17;6.00;99.90
35258;DHT22;21385;50.878;8.050;2023-12-20T14:23:43;6.00;99.90
35258;DHT22;21385;50.878;8.050;2023-12-20T14:26:08;6.00;99.90
35258;DHT22;21385;50.878;8.050;2023-12-20T14:28:41;6.10;99.90
35258;DHT22;21385;50.878;8.050;2023-12-20T14:31:06;6.10;99.90
35258;DHT22;21385;50.878;8.050;2023-12-20T14:33:32;6.10;99.90
35258;DHT22;21385;50.878;8.050;2023-12-20T14:35:58;6.10;99.90
35258;DHT22;21385;50.878;8.050;2023-12-20T14:38:23;6.10;99.90
35258;DHT22;21385;50.878;8.050;2023-12-20T14:40:49;6.10;99.90
35258;DHT22;21385;50.878;8.050;2023-12-20T14:43:16;6.10;99.90
35258;DHT22;21385;50.878;8.050;2023-12-20T14:45:42;6.10;99.90
35258;DHT22;21385;50.878;8.050;2023-12-20T14:48:07;6.00;99.90
35258;DHT22;21385;50.878;8.050;2023-12-20T14:50:33;6.00;99.90
35258;DHT22;21385;50.878;8.050;2023-12-20T14:52:58;6.00;99.90
35258;DHT22;21385;50.878;8.050;2023-12-20T14:55:25;6.00;99.90
35258;DHT22;21385;50.878;8.050;2023-12-20T14:57:53;6.10;99.90
35258;DHT22;21385;50.878;8.050;2023-12-20T15:00:18;6.10;99.90
35258;DHT22;21385;50.878;8.050;2023-12-20T15:02:45;6.10;99.90
35258;DHT22;21385;50.878;8.050;2023-12-20T15:05:11;6.10;99.90
35258;DHT22;21385;50.878;8.050;2023-12-20T15:07:36;6.10;99.90
35258;DHT22;21385;50.878;8.050;2023-12-20T15:10:03;6.10;99.90
35258;DHT22;21385;50.878;8.050;2023-12-20T15:12:29;6.10;99.90
35258;DHT22;21385;50.878;8.050;2023-12-20T15:14:54;6.10;99.90
35258;DHT22;21385;50.878;8.050;2023-12-20T15:17:20;6.10;99.90
35258;DHT22;21385;50.878;8.050;2023-12-20T15:19:46;6.10;99.90
35258;DHT22;21385;50.878;8.050;2023-12-20T15:22:12;6.10;99.90
35258;DHT22;21385;50.878;8.050;2023-12-20T15:24:37;6.10;99.90
35258;DHT22;21385;50.878;8.050;2023-12-20T15:27:07;6.10;99.90
35258;DHT22;21385;50.878;8.050;2023-12-20T15:29:33;6.10;99.90
35258;DHT22;21385;50.878;8.050;2023-12-20T15:31:59;6.10;99.90
35258;DHT22;21385;50.878;8.050;2023-12-20T15:34:25;6.20;99.90
35258;DHT22;21385;50.878;8.050;2023-12-20T15:36:50;6.20;99.90
35258;DHT22;21385;50.878;8.050;2023-12-20T15:39:16;6.20;99.90
35258;DHT22;21385;50.878;8.050;2023-12-20T15:41:41;6.20;99.90